.
WxDataArchive / Data Records for 2011-07-22
2011-07-21 July 2011 2011-07-23

Data Records for Friday, 22 July 2011

Time	Temp	Chill	HIndex	Humid	Dewpt	 Wind 	HiWind	WindDir	Rain 	Barom 
-----	----	-----	------	-----	-----	------	------	-------	-----	----- 
00:00	88.2	88.2	96.1	61	73.0	0	1	270	0.00	29.818 
00:05	88.2	88.2	96.1	61	73.0	0	1	270	0.00	29.818 
00:10	88.0	88.0	96.1	62	73.3	0	2	270	0.00	29.818 
00:15	87.8	87.8	95.6	62	73.1	0	2	270	0.00	29.821 
00:20	87.8	87.8	95.6	62	73.1	0	2	270	0.00	29.821 
00:25	87.8	87.8	95.6	62	73.1	0	2	270	0.00	29.821 
00:30	87.8	87.8	95.6	62	73.1	1	2	270	0.00	29.824 
00:35	87.8	87.8	95.6	62	73.1	0	2	270	0.00	29.824 
00:40	87.6	87.6	95.2	62	72.9	1	3	270	0.00	29.824 
00:45	87.6	87.6	95.2	62	72.9	0	3	270	0.00	29.829 
00:50	87.6	87.6	95.7	63	73.4	0	1	270	0.00	29.829 
00:55	87.4	87.4	95.2	63	73.2	0	3	270	0.00	29.829 
01:00	87.4	87.4	95.2	63	73.2	0	1	270	0.00	29.836 
01:05	87.2	87.2	95.2	64	73.5	0	1	270	0.00	29.836 
01:10	87.2	87.2	95.2	64	73.5	0	2	270	0.00	29.836 
01:15	87.2	87.2	95.2	64	73.5	0	1	270	0.00	29.833 
01:20	87.0	87.0	94.8	64	73.3	0	1	270	0.00	29.833 
01:25	87.0	87.0	94.8	64	73.3	0	1	270	0.00	29.833 
01:30	86.7	86.7	94.5	65	73.5	0	2	270	0.00	29.830 
01:35	86.7	86.7	94.5	65	73.5	0	2	270	0.00	29.830 
01:40	86.5	86.5	94.1	65	73.3	0	1	270	0.00	29.830 
01:45	86.3	86.3	94.1	66	73.6	0	1	270	0.00	29.826 
01:50	86.3	86.3	94.1	66	73.6	0	1	270	0.00	29.826 
01:55	86.1	86.1	94.0	67	73.8	0	1	270	0.00	29.826 
02:00	85.9	85.9	93.6	67	73.6	0	1	270	0.00	29.827 
02:05	85.7	85.7	93.1	67	73.4	0	1	270	0.00	29.827 
02:10	85.7	85.7	93.5	68	73.9	0	1	270	0.00	29.827 
02:15	85.5	85.5	93.1	68	73.7	0	1	270	0.00	29.829 
02:20	85.5	85.5	93.1	68	73.7	0	1	270	0.00	29.829 
02:25	85.5	85.5	93.1	68	73.7	0	2	270	0.00	29.829 
02:30	85.5	85.5	93.1	68	73.7	0	2	270	0.00	29.833 
02:35	85.5	85.5	93.1	68	73.7	0	2	270	0.00	29.833 
02:40	85.5	85.5	93.1	68	73.7	0	1	270	0.00	29.833 
02:45	85.5	85.5	93.1	68	73.7	0	2	270	0.00	29.836 
02:50	85.5	85.5	93.1	68	73.7	0	1	270	0.00	29.836 
02:55	85.5	85.5	93.5	69	74.1	0	1	270	0.00	29.836 
03:00	85.3	85.3	93.0	69	73.9	0	1	270	0.00	29.834 
03:05	85.1	85.1	92.6	69	73.8	0	2	270	0.00	29.834 
03:10	84.9	84.9	92.5	70	74.0	0	2	270	0.00	29.834 
03:15	84.9	84.9	92.5	70	74.0	1	3	270	0.00	29.835 
03:20	84.7	84.7	92.0	70	73.8	1	3	270	0.00	29.835 
03:25	84.7	84.7	92.4	71	74.2	1	3	270	0.00	29.835 
03:30	84.7	84.7	92.4	71	74.2	1	3	270	0.00	29.837 
03:35	84.5	84.5	91.9	71	74.0	1	3	270	0.00	29.837 
03:40	84.5	84.5	92.3	72	74.5	0	2	270	0.00	29.837 
03:45	84.3	84.3	91.8	72	74.3	0	1	270	0.00	29.840 
03:50	84.1	84.1	91.4	72	74.1	0	1	270	0.00	29.840 
03:55	84.1	84.1	91.7	73	74.5	0	1	270	0.00	29.840 
04:00	84.0	84.0	91.5	73	74.4	0	1	270	0.00	29.847 
04:05	84.0	84.0	91.8	74	74.8	0	1	270	0.00	29.847 
04:10	83.8	83.8	91.3	74	74.6	0	0	---	0.00	29.847 
04:15	83.6	83.6	91.2	75	74.8	0	1	270	0.00	29.853 
04:20	83.4	83.4	90.7	75	74.6	0	0	---	0.00	29.853 
04:25	83.2	83.2	90.6	76	74.8	0	0	---	0.00	29.853 
04:30	83.0	83.0	90.1	76	74.6	0	0	---	0.00	29.854 
04:35	82.8	82.8	89.9	77	74.8	0	1	270	0.00	29.854 
04:40	82.8	82.8	89.9	77	74.8	0	0	---	0.00	29.854 
04:45	82.6	82.6	89.4	77	74.6	0	0	---	0.00	29.858 
04:50	82.6	82.6	89.7	78	75.0	0	0	---	0.00	29.858 
04:55	82.4	82.4	89.2	78	74.8	0	0	---	0.00	29.858 
05:00	82.2	82.2	89.0	79	75.0	0	1	270	0.00	29.865 
05:05	82.2	82.2	89.0	79	75.0	0	0	---	0.00	29.865 
05:10	82.0	82.0	88.8	80	75.2	0	0	---	0.00	29.865 
05:15	81.8	81.8	88.3	80	75.0	0	0	---	0.00	29.871 
05:20	81.8	81.8	88.3	80	75.0	0	0	---	0.00	29.871 
05:25	81.6	81.6	88.1	81	75.2	0	0	---	0.00	29.871 
05:30	81.4	81.4	87.6	81	75.0	0	0	---	0.00	29.862 
05:35	81.2	81.2	87.1	81	74.8	0	0	---	0.00	29.862 
05:40	81.1	81.1	87.1	82	75.1	0	0	---	0.00	29.862 
05:45	80.9	80.9	86.8	83	75.2	0	0	---	0.00	29.871 
05:50	80.7	80.7	86.3	83	75.0	0	0	---	0.00	29.871 
05:55	80.5	80.5	85.8	83	74.8	0	0	---	0.00	29.871 
06:00	80.3	80.3	85.5	84	75.0	0	0	---	0.00	29.872 
06:05	80.3	80.3	85.5	84	75.0	0	0	---	0.00	29.872 
06:10	80.1	80.1	85.0	84	74.8	0	0	---	0.00	29.872 
06:15	79.9	79.9	84.7	85	75.0	0	0	---	0.00	29.873 
06:20	79.8	79.8	84.4	85	74.9	0	0	---	0.00	29.873 
06:25	79.6	79.6	84.1	86	75.0	0	0	---	0.00	29.873 
06:30	79.6	79.6	84.1	86	75.0	0	0	---	0.00	29.866 
06:35	79.4	79.4	83.6	86	74.8	0	0	---	0.00	29.866 
06:40	79.2	79.2	83.1	86	74.6	0	0	---	0.00	29.866 
06:45	79.2	79.2	83.2	87	75.0	0	0	---	0.00	29.872 
06:50	79.0	79.0	82.7	87	74.8	0	0	---	0.00	29.872 
06:55	79.0	79.0	82.7	87	74.8	0	0	---	0.00	29.872 
07:00	79.0	79.0	82.8	88	75.1	0	0	---	0.00	29.873 
07:05	79.0	79.0	82.8	88	75.1	0	2	270	0.00	29.873 
07:10	79.2	79.2	83.3	88	75.3	0	0	---	0.00	29.873 
07:15	79.2	79.2	83.3	88	75.3	0	1	270	0.00	29.879 
07:20	79.4	79.4	83.8	88	75.5	0	1	270	0.00	29.879 
07:25	79.6	79.6	84.3	88	75.7	0	1	270	0.00	29.879 
07:30	79.8	79.8	84.7	87	75.6	0	1	270	0.00	29.874 
07:35	80.1	80.1	85.2	85	75.2	0	2	270	0.00	29.874 
07:40	80.3	80.3	85.5	84	75.0	0	2	270	0.00	29.874 
07:45	80.7	80.7	86.3	83	75.0	0	2	270	0.00	29.876 
07:50	80.9	80.9	86.6	82	74.9	1	4	112	0.00	29.876 
07:55	81.1	81.1	86.9	81	74.7	1	3	112	0.00	29.876 
08:00	81.2	81.2	86.9	80	74.4	2	4	90	0.00	29.878 
08:05	81.4	81.4	87.1	79	74.2	1	3	45	0.00	29.878 
08:10	81.6	81.6	87.4	78	74.1	1	4	68	0.00	29.878 
08:15	82.0	82.0	88.0	77	74.1	1	2	68	0.00	29.878 
08:20	82.4	82.4	89.0	77	74.4	0	2	68	0.00	29.878 
08:25	83.0	83.0	90.1	76	74.6	1	4	68	0.00	29.878 
08:30	83.4	83.4	91.0	76	75.0	1	4	68	0.00	29.879 
08:35	83.6	83.6	91.5	76	75.2	1	5	68	0.00	29.879 
08:40	84.0	84.0	91.8	74	74.8	1	3	68	0.00	29.879 
08:45	84.1	84.1	92.4	75	75.3	1	3	68	0.00	29.879 
08:50	84.5	84.5	93.0	74	75.3	0	1	68	0.00	29.879 
08:55	85.1	85.1	94.5	74	75.9	0	2	68	0.00	29.879 
09:00	85.5	85.5	95.1	73	75.8	1	4	68	0.00	29.882 
09:05	85.9	85.9	96.1	73	76.2	0	2	68	0.00	29.882 
09:10	86.1	86.1	96.7	73	76.4	1	4	68	0.00	29.882 
09:15	86.3	86.3	96.7	72	76.2	1	3	68	0.00	29.891 
09:20	86.7	86.7	97.3	71	76.1	0	2	68	0.00	29.891 
09:25	87.4	87.4	98.6	70	76.4	0	2	90	0.00	29.891 
09:30	88.0	88.0	99.7	69	76.5	0	1	90	0.00	29.891 
09:35	88.2	88.2	100.2	69	76.7	1	3	90	0.00	29.891 
09:40	88.2	88.2	100.8	70	77.1	1	5	90	0.00	29.891 
09:45	88.4	88.4	100.7	69	76.9	0	1	90	0.00	29.889 
09:50	88.8	88.8	101.8	69	77.3	0	3	90	0.00	29.889 
09:55	89.3	89.3	102.6	68	77.3	0	1	90	0.00	29.889 
10:00	89.5	89.5	102.5	67	77.1	0	3	90	0.00	29.887 
10:05	89.9	89.9	103.6	67	77.4	0	2	90	0.00	29.887 
10:10	90.5	90.5	104.7	66	77.5	1	3	90	0.00	29.887 
10:15	90.7	90.7	104.6	65	77.3	1	2	90	0.00	29.887 
10:20	91.2	91.2	106.0	65	77.7	0	2	90	0.00	29.887 
10:25	91.6	91.6	105.7	63	77.2	1	3	90	0.00	29.887 
10:30	91.6	91.6	105.7	63	77.2	1	4	90	0.00	29.887 
10:35	91.8	91.8	105.5	62	76.9	0	3	45	0.00	29.887 
10:40	92.7	92.7	106.5	60	76.7	1	3	45	0.00	29.887 
10:45	92.9	92.9	107.8	61	77.4	0	4	45	0.00	29.885 
10:50	93.2	93.2	106.4	58	76.2	1	2	45	0.00	29.885 
10:55	93.4	93.4	107.0	58	76.4	1	4	45	0.00	29.885 
11:00	93.6	93.6	107.5	58	76.6	1	4	315	0.00	29.886 
11:05	93.8	93.8	107.3	57	76.2	1	4	90	0.00	29.886 
11:10	93.6	93.6	107.5	58	76.6	1	3	270	0.00	29.886 
11:15	93.8	93.8	108.0	58	76.7	1	3	22	0.00	29.889 
11:20	93.8	93.8	106.6	56	75.7	1	4	270	0.00	29.889 
11:25	93.8	93.8	107.3	57	76.2	1	4	292	0.00	29.889 
11:30	94.5	94.5	106.9	54	75.2	1	3	315	0.00	29.890 
11:35	94.7	94.7	106.6	53	74.9	1	3	315	0.00	29.890 
11:40	95.1	95.1	106.9	52	74.7	1	4	270	0.00	29.890 
11:45	95.4	95.4	106.9	51	74.3	1	4	225	0.00	29.890 
11:50	94.9	94.9	106.4	52	74.5	2	5	270	0.00	29.890 
11:55	94.5	94.5	105.4	52	74.1	2	4	270	0.00	29.890 
12:00	93.6	93.6	103.3	52	73.3	3	6	270	0.00	29.893 
12:05	93.6	93.6	103.9	53	73.8	3	6	270	0.00	29.893 
12:10	93.8	93.8	103.1	51	72.9	2	4	270	0.00	29.893 
12:15	93.8	93.8	103.1	51	72.9	3	5	270	0.00	29.894 
12:20	93.6	93.6	102.0	50	72.1	2	6	270	0.00	29.894 
12:25	94.0	94.0	102.9	50	72.5	2	8	270	0.00	29.894 
12:30	94.3	94.3	102.9	49	72.2	3	9	270	0.00	29.897 
12:35	94.5	94.5	103.4	49	72.3	2	5	270	0.00	29.897 
12:40	94.3	94.3	103.6	50	72.8	1	4	270	0.00	29.897 
12:45	94.0	94.0	103.6	51	73.1	2	4	270	0.00	29.893 
12:50	93.6	93.6	102.0	50	72.1	2	4	270	0.00	29.893 
12:55	93.4	93.4	102.2	51	72.5	2	6	270	0.00	29.893 
13:00	94.0	94.0	102.9	50	72.5	2	4	270	0.00	29.890 
13:05	94.9	94.9	105.0	50	73.3	2	4	270	0.00	29.890 
13:10	95.9	95.9	105.9	48	73.0	2	5	270	0.00	29.890 
13:15	95.1	95.1	103.4	47	71.6	3	7	270	0.00	29.890 
13:20	94.5	94.5	103.4	49	72.3	2	4	292	0.00	29.890 
13:25	94.0	94.0	102.9	50	72.5	1	4	292	0.00	29.890 
13:30	93.8	93.8	101.8	49	71.7	2	4	270	0.00	29.882 
13:35	94.0	94.0	102.3	49	71.9	2	5	270	0.00	29.882 
13:40	95.1	95.1	104.1	48	72.3	1	4	270	0.00	29.882 
13:45	96.6	96.6	106.1	46	72.4	2	5	292	0.00	29.873 
13:50	96.6	96.6	106.1	46	72.4	2	5	270	0.00	29.873 
13:55	96.1	96.1	105.0	46	71.9	2	5	270	0.00	29.873 
14:00	95.9	95.9	105.9	48	73.0	2	6	270	0.00	29.860 
14:05	95.9	95.9	105.2	47	72.4	2	6	270	0.00	29.860 
14:10	96.1	96.1	104.3	45	71.3	3	5	270	0.00	29.860 
14:15	96.6	96.6	104.0	43	70.4	3	7	270	0.00	29.869 
14:20	96.3	96.3	103.4	43	70.1	3	5	270	0.00	29.869 
14:25	95.4	95.4	103.4	46	71.3	3	5	270	0.00	29.869 
14:30	95.1	95.1	103.4	47	71.6	2	5	248	0.00	29.866 
14:35	94.7	94.7	103.2	48	71.9	2	5	270	0.00	29.866 
14:40	94.0	94.0	102.3	49	71.9	3	5	248	0.00	29.866 
14:45	90.7	90.7	94.1	46	67.0	6	13	292	0.00	29.913 
14:50	84.1	84.1	86.4	55	66.2	8	17	292	0.00	29.913 
14:55	80.1	80.1	82.5	65	67.2	8	20	270	0.00	29.913 
15:00	76.8	76.8	78.4	77	69.0	7	17	315	0.00	29.940 
15:05	75.1	75.1	75.3	83	69.6	4	13	292	0.00	29.940 
15:10	74.6	74.6	74.6	86	70.1	2	5	315	0.01	29.940 
15:15	74.0	74.0	74.0	87	69.9	1	4	315	0.01	29.968 
15:20	73.9	73.9	73.9	88	70.1	0	3	270	0.00	29.968 
15:25	73.5	73.5	73.5	89	70.0	1	3	292	0.00	29.968 
15:30	73.3	73.3	73.3	89	69.9	0	2	292	0.00	29.935 
15:35	73.3	73.3	73.3	90	70.2	0	1	292	0.00	29.935 
15:40	73.3	73.3	73.3	90	70.2	0	3	315	0.00	29.935 
15:45	73.5	73.5	73.5	91	70.7	0	1	338	0.00	29.928 
15:50	73.9	73.9	73.9	90	70.8	1	4	45	0.00	29.928 
15:55	73.9	73.9	73.9	90	70.8	0	2	45	0.00	29.928 
16:00	73.9	73.9	73.9	90	70.8	1	3	45	0.00	29.904 
16:05	74.0	74.0	74.0	90	70.9	0	0	---	0.00	29.904 
16:10	74.2	74.2	74.2	90	71.1	0	0	---	0.00	29.904 
16:15	74.4	74.4	74.4	89	70.9	0	1	45	0.00	29.893 
16:20	74.7	74.7	74.7	89	71.2	0	3	45	0.00	29.893 
16:25	75.1	75.1	74.6	88	71.3	0	2	45	0.00	29.893 
16:30	75.4	75.4	75.4	86	70.9	0	1	45	0.00	29.892 
16:35	75.8	75.8	76.3	84	70.6	1	3	45	0.00	29.892 
16:40	76.1	76.1	77.0	82	70.2	1	4	45	0.00	29.892 
16:45	77.0	77.0	78.5	81	70.7	1	4	90	0.00	29.882 
16:50	77.9	77.9	80.1	80	71.2	2	5	90	0.00	29.882 
16:55	78.5	78.5	81.0	76	70.3	2	4	90	0.00	29.882 
17:00	79.4	79.4	82.6	76	71.2	1	3	90	0.00	29.892 
17:05	79.6	79.6	82.7	74	70.6	2	5	112	0.00	29.892 
17:10	79.8	79.8	83.0	73	70.4	1	4	68	0.00	29.892 
17:15	79.9	79.9	83.1	73	70.4	0	2	90	0.00	29.892 
17:20	80.3	80.3	83.7	72	70.4	1	4	90	0.00	29.892 
17:25	80.7	80.7	84.4	72	70.8	1	5	135	0.00	29.892 
17:30	80.9	80.9	84.3	69	69.8	2	4	90	0.00	29.892 
17:35	81.2	81.2	85.0	70	70.5	1	3	90	0.00	29.892 
17:40	81.8	81.8	86.1	70	71.0	1	3	135	0.00	29.892 
17:45	82.4	82.4	86.7	68	70.8	2	4	90	0.00	29.892 
17:50	82.8	82.8	87.5	68	71.1	1	3	112	0.00	29.892 
17:55	83.2	83.2	88.0	67	71.1	0	1	112	0.00	29.892 
18:00	83.4	83.4	88.4	67	71.3	1	3	112	0.00	29.882 
18:05	83.2	83.2	88.5	69	71.9	1	4	112	0.00	29.882 
18:10	83.2	83.2	88.2	68	71.5	0	2	112	0.00	29.882 
18:15	83.2	83.2	88.0	67	71.1	1	3	112	0.00	29.884 
18:20	83.4	83.4	88.6	68	71.7	0	3	112	0.00	29.884 
18:25	83.4	83.4	88.6	68	71.7	0	3	112	0.00	29.884 
18:30	83.2	83.2	88.0	67	71.1	1	3	112	0.00	29.879 
18:35	83.0	83.0	87.9	68	71.3	1	3	112	0.00	29.879 
18:40	83.0	83.0	88.1	69	71.8	0	2	158	0.00	29.879 
18:45	83.0	83.0	87.9	68	71.3	1	3	112	0.00	29.877 
18:50	83.0	83.0	88.1	69	71.8	1	3	112	0.00	29.877 
18:55	83.0	83.0	88.1	69	71.8	1	4	112	0.00	29.877 
19:00	82.8	82.8	87.5	68	71.1	1	2	90	0.00	29.874 
19:05	83.0	83.0	88.1	69	71.8	1	3	112	0.00	29.874 
19:10	83.0	83.0	88.1	69	71.8	0	1	112	0.00	29.874 
19:15	83.0	83.0	88.1	69	71.8	0	2	112	0.00	29.869 
19:20	83.2	83.2	88.5	69	71.9	0	2	112	0.00	29.869 
19:25	83.2	83.2	88.2	68	71.5	1	4	112	0.00	29.869 
19:30	83.4	83.4	88.6	68	71.7	1	2	112	0.00	29.869 
19:35	83.6	83.6	89.3	69	72.3	1	3	112	0.00	29.869 
19:40	83.6	83.6	89.3	69	72.3	0	1	112	0.00	29.869 
19:45	83.8	83.8	89.1	67	71.6	0	2	112	0.00	29.872 
19:50	83.8	83.8	89.4	68	72.1	0	2	112	0.00	29.872 
19:55	84.0	84.0	89.5	67	71.8	0	2	112	0.00	29.872 
20:00	84.1	84.1	89.4	66	71.5	0	0	---	0.00	29.873 
20:05	84.1	84.1	89.4	66	71.5	0	0	---	0.00	29.873 
20:10	84.3	84.3	89.8	66	71.7	0	0	---	0.00	29.873 
20:15	84.3	84.3	90.5	68	72.6	0	1	112	0.00	29.867 
20:20	84.0	84.0	90.2	69	72.7	0	2	112	0.00	29.867 
20:25	83.8	83.8	89.7	69	72.5	0	1	112	0.00	29.867 
20:30	83.6	83.6	89.3	69	72.3	0	0	---	0.00	29.874 
20:35	83.4	83.4	88.9	69	72.1	0	1	112	0.00	29.874 
20:40	83.2	83.2	88.8	70	72.4	0	1	112	0.00	29.874 
20:45	83.2	83.2	88.8	70	72.4	0	1	112	0.00	29.881 
20:50	83.0	83.0	88.7	71	72.6	0	1	112	0.00	29.881 
20:55	83.0	83.0	88.7	71	72.6	0	1	112	0.00	29.881 
21:00	82.8	82.8	88.5	72	72.8	0	0	---	0.00	29.873 
21:05	82.6	82.6	88.1	72	72.6	0	0	---	0.00	29.873 
21:10	82.6	82.6	88.1	72	72.6	0	0	---	0.00	29.873 
21:15	82.4	82.4	87.9	73	72.9	0	0	---	0.00	29.867 
21:20	82.2	82.2	87.5	73	72.7	0	0	---	0.00	29.867 
21:25	82.0	82.0	87.3	74	72.9	0	0	---	0.00	29.867 
21:30	81.8	81.8	86.9	74	72.7	0	0	---	0.00	29.865 
21:35	81.4	81.4	86.1	74	72.3	0	1	112	0.00	29.865 
21:40	81.4	81.4	86.1	74	72.3	0	2	112	0.00	29.865 
21:45	81.4	81.4	86.1	74	72.3	0	1	112	0.00	29.878 
21:50	81.4	81.4	86.1	74	72.3	0	0	---	0.00	29.878 
21:55	81.2	81.2	85.9	75	72.5	0	0	---	0.00	29.878 
22:00	81.2	81.2	85.9	75	72.5	0	0	---	0.00	29.884 
22:05	81.1	81.1	85.7	75	72.4	0	0	---	0.00	29.884 
22:10	81.1	81.1	85.7	75	72.4	0	1	112	0.00	29.884 
22:15	81.1	81.1	85.9	76	72.8	0	0	---	0.00	29.882 
22:20	81.1	81.1	85.9	76	72.8	0	0	---	0.00	29.882 
22:25	80.9	80.9	85.7	77	73.0	0	0	---	0.00	29.882 
22:30	80.9	80.9	85.7	77	73.0	0	0	---	0.00	29.888 
22:35	80.7	80.7	85.2	77	72.8	0	0	---	0.00	29.888 
22:40	80.5	80.5	84.8	77	72.6	0	0	---	0.00	29.888 
22:45	80.5	80.5	84.8	77	72.6	0	0	---	0.00	29.891 
22:50	80.3	80.3	84.6	78	72.8	0	0	---	0.00	29.891 
22:55	80.1	80.1	84.2	78	72.6	0	0	---	0.00	29.891 
23:00	80.1	80.1	84.3	79	73.0	0	0	---	0.00	29.895 
23:05	79.9	79.9	83.8	78	72.4	0	0	---	0.00	29.895 
23:10	79.9	79.9	83.9	79	72.8	0	0	---	0.00	29.895 
23:15	79.9	79.9	83.9	79	72.8	0	0	---	0.00	29.893 
23:20	79.9	79.9	83.9	79	72.8	0	0	---	0.00	29.893 
23:25	79.9	79.9	83.9	79	72.8	0	0	---	0.00	29.893 
23:30	79.9	79.9	83.9	79	72.8	0	0	---	0.00	29.894 
23:35	79.8	79.8	83.7	79	72.7	0	0	---	0.00	29.894 
23:40	79.8	79.8	83.7	79	72.7	0	0	---	0.00	29.894 
23:45	79.8	79.8	83.7	79	72.7	0	0	---	0.00	29.891 
23:50	79.8	79.8	83.7	79	72.7	0	0	---	0.00	29.891 
23:55	79.6	79.6	83.3	79	72.5	0	0	---	0.00	29.891 

CoCoRaHS
IN-AL-39
A2 Web Hosting
Creative Commons License
GoDaddy
search engine by freefind advanced

loaded 2018-11-20 03:51:22 • last modified 2010-11-18 10:43:29
Privacy PolicyDisclaimer
• wx.awcolley.com is powered by PmWiki v.2002016 •
• all content (unless otherwise noted) © 2018 A W Colley